createdAt,value
2023-11-18T00:02:26.335Z,98886.51
2023-11-18T00:05:32.170Z,98888.55
2023-11-18T00:08:38.306Z,98889.23
2023-11-18T00:11:44.414Z,98894.70
2023-11-18T00:14:50.299Z,98896.45
2023-11-18T00:17:55.985Z,98897.81
2023-11-18T00:21:01.750Z,98901.83
2023-11-18T00:24:09.229Z,98897.84
2023-11-18T00:27:16.367Z,98897.14
2023-11-18T00:30:22.041Z,98900.57
2023-11-18T00:33:27.724Z,98909.63
2023-11-18T00:36:33.465Z,98915.02
2023-11-18T00:39:39.734Z,98916.42
2023-11-18T00:42:45.425Z,98916.66
2023-11-18T00:45:52.521Z,98917.00
2023-11-18T00:48:59.622Z,98918.27
2023-11-18T00:52:06.133Z,98921.45
2023-11-18T00:55:12.707Z,98924.30
2023-11-18T00:58:18.351Z,98924.64
2023-11-18T01:01:23.998Z,98927.30
2023-11-18T01:04:29.690Z,98929.56
2023-11-18T01:07:35.355Z,98927.12
2023-11-18T01:10:41.501Z,98928.77
2023-11-18T01:13:47.201Z,98929.45
2023-11-18T01:16:53.915Z,98934.16
2023-11-18T01:20:00.488Z,98933.79
2023-11-18T01:23:06.285Z,98926.20
2023-11-18T01:26:13.636Z,98922.98
2023-11-18T01:29:19.466Z,98923.83
2023-11-18T01:32:26.766Z,98925.88
2023-11-18T01:35:32.771Z,98922.40
2023-11-18T01:38:39.666Z,98919.60
2023-11-18T01:41:45.738Z,98920.51
2023-11-18T01:44:52.401Z,98922.14
2023-11-18T01:47:58.334Z,98923.79
2023-11-18T01:51:07.346Z,98926.30
2023-11-18T01:54:16.930Z,98926.69
2023-11-18T01:57:22.794Z,98929.48
2023-11-18T02:00:29.064Z,98930.55
2023-11-18T02:03:34.794Z,98933.70
2023-11-18T02:06:40.991Z,98939.24
2023-11-18T02:09:47.296Z,98933.92
2023-11-18T02:12:57.866Z,98935.08
2023-11-18T02:16:06.422Z,98937.11
2023-11-18T02:19:21.790Z,98936.34
2023-11-18T02:22:27.955Z,98928.40
2023-11-18T02:25:41.854Z,98930.73
2023-11-18T02:28:47.593Z,98934.38
2023-11-18T02:31:59.838Z,98937.02
2023-11-18T02:35:12.056Z,98940.39
2023-11-18T02:38:21.591Z,98940.34
2023-11-18T02:41:30.566Z,98938.46
2023-11-18T02:44:37.585Z,98935.83
2023-11-18T02:47:43.750Z,98937.77
2023-11-18T02:50:49.399Z,98937.98
2023-11-18T02:53:55.924Z,98933.54
2023-11-18T02:57:01.846Z,98935.48
2023-11-18T03:00:13.466Z,98937.70
2023-11-18T03:03:19.358Z,98939.86
2023-11-18T03:06:25.043Z,98942.32
2023-11-18T03:09:30.945Z,98944.45
2023-11-18T03:12:36.810Z,98944.74
2023-11-18T03:15:42.847Z,98947.33
2023-11-18T03:18:49.360Z,98950.04
2023-11-18T03:21:55.865Z,98952.64
2023-11-18T03:25:01.479Z,98953.44
2023-11-18T03:28:08.698Z,98953.54
2023-11-18T03:31:15.822Z,98957.59
2023-11-18T03:34:22.098Z,98960.27
2023-11-18T03:37:27.568Z,98964.60
2023-11-18T03:40:34.194Z,98965.97
2023-11-18T03:43:40.927Z,98966.34
2023-11-18T03:46:46.716Z,98967.33
2023-11-18T03:49:52.668Z,98967.34
2023-11-18T03:52:58.447Z,98965.14
2023-11-18T03:56:04.632Z,98960.84
2023-11-18T03:59:08.996Z,98961.41
2023-11-18T04:02:14.736Z,98965.55
2023-11-18T04:05:20.491Z,98969.52
2023-11-18T04:08:26.753Z,98972.44
2023-11-18T04:11:30.802Z,98976.98
2023-11-18T04:14:36.478Z,98978.63
2023-11-18T04:17:42.460Z,98978.86
2023-11-18T04:20:51.609Z,98974.38
2023-11-18T04:23:57.565Z,98975.94
2023-11-18T04:27:03.578Z,98975.33
2023-11-18T04:30:11.380Z,98976.38
2023-11-18T04:33:17.049Z,98972.96
2023-11-18T04:36:23.349Z,98965.30
2023-11-18T04:39:29.521Z,98967.35
2023-11-18T04:42:35.128Z,98970.60
2023-11-18T04:45:41.394Z,98973.16
2023-11-18T04:48:45.561Z,98974.63
2023-11-18T04:51:51.375Z,98974.19
2023-11-18T04:54:57.042Z,98972.59
2023-11-18T04:58:02.722Z,98974.39
2023-11-18T05:01:10.220Z,98973.87
2023-11-18T05:04:17.103Z,98977.23
2023-11-18T05:07:22.959Z,98976.96
2023-11-18T05:10:28.634Z,98979.98
2023-11-18T05:13:35.341Z,98980.48
2023-11-18T05:16:41.481Z,98980.41
2023-11-18T05:19:47.171Z,98981.36
2023-11-18T05:22:52.948Z,98983.84
2023-11-18T05:25:59.502Z,98986.85
2023-11-18T05:29:05.742Z,98990.73
2023-11-18T05:32:11.879Z,98992.86
2023-11-18T05:35:17.553Z,99003.80
2023-11-18T05:38:25.032Z,99003.39
2023-11-18T05:41:31.817Z,99002.77
2023-11-18T05:44:39.073Z,99005.48
2023-11-18T05:47:44.740Z,99003.61
2023-11-18T05:50:50.623Z,99005.30
2023-11-18T05:53:56.589Z,99007.16
2023-11-18T05:57:02.504Z,99007.31
2023-11-18T06:00:17.879Z,99008.02
2023-11-18T06:03:26.616Z,99013.02
2023-11-18T06:06:33.288Z,99011.59
2023-11-18T06:09:38.920Z,99009.95
2023-11-18T06:12:44.645Z,99011.28
2023-11-18T06:15:51.079Z,99016.44
2023-11-18T06:18:59.813Z,99017.95
2023-11-18T06:22:07.053Z,99023.76
2023-11-18T06:25:14.126Z,99027.16
2023-11-18T06:28:19.830Z,99027.89
2023-11-18T06:31:25.999Z,99029.73
2023-11-18T06:34:31.662Z,99031.19
2023-11-18T06:37:37.568Z,99035.55
2023-11-18T06:40:43.217Z,99036.83
2023-11-18T06:43:58.663Z,99040.08
2023-11-18T06:47:06.353Z,99041.34
2023-11-18T06:50:15.653Z,99047.79
2023-11-18T06:53:21.880Z,99050.73
2023-11-18T06:56:26.414Z,99050.52
2023-11-18T06:59:32.054Z,99051.36
2023-11-18T07:02:37.712Z,99049.55
2023-11-18T07:05:43.383Z,99055.31
2023-11-18T07:08:49.855Z,99051.83
2023-11-18T07:11:57.301Z,99054.79
2023-11-18T07:15:03.775Z,99058.06
2023-11-18T07:18:10.159Z,99061.23
2023-11-18T07:21:15.872Z,99068.11
2023-11-18T07:24:22.621Z,99072.73
2023-11-18T07:27:28.338Z,99075.59
2023-11-18T07:30:33.932Z,99080.61
2023-11-18T07:33:40.870Z,99078.66
2023-11-18T07:36:48.609Z,99079.06
2023-11-18T07:39:56.343Z,99087.75
2023-11-18T07:43:03.949Z,99090.04
2023-11-18T07:46:10.157Z,99089.98
2023-11-18T07:49:17.775Z,99096.30
2023-11-18T07:52:23.433Z,99099.92
2023-11-18T07:55:29.601Z,99104.10
2023-11-18T07:58:38.526Z,99105.13
2023-11-18T08:01:47.558Z,99106.92
2023-11-18T08:04:53.516Z,99102.23
2023-11-18T08:08:00.419Z,99097.95
2023-11-18T08:11:07.015Z,99099.67
2023-11-18T08:14:12.764Z,99107.60
2023-11-18T08:17:18.454Z,99105.82
2023-11-18T08:20:26.597Z,99105.27
2023-11-18T08:23:32.898Z,99101.66
2023-11-18T08:26:38.718Z,99106.33
2023-11-18T08:29:44.320Z,99112.38
2023-11-18T08:32:50.307Z,99120.55
2023-11-18T08:35:56.295Z,99124.34
2023-11-18T08:39:01.992Z,99126.54
2023-11-18T08:42:08.840Z,99131.17
2023-11-18T08:45:15.642Z,99139.56
2023-11-18T08:48:21.292Z,99144.52
2023-11-18T08:51:27.298Z,99147.80
2023-11-18T08:54:39.124Z,99150.94
2023-11-18T08:57:53.947Z,99151.94
2023-11-18T09:01:07.819Z,99158.71
2023-11-18T09:04:13.865Z,99159.20
2023-11-18T09:07:20.337Z,99158.95
2023-11-18T09:10:26.393Z,99160.18
2023-11-18T09:13:32.899Z,99159.01
2023-11-18T09:16:40.876Z,99161.59
2023-11-18T09:19:47.632Z,99161.48
2023-11-18T09:22:56.990Z,99163.05
2023-11-18T09:26:03.725Z,99165.11
2023-11-18T09:29:10.763Z,99168.42
2023-11-18T09:32:16.617Z,99169.77
2023-11-18T09:35:22.722Z,99168.14
2023-11-18T09:38:32.486Z,99170.80
2023-11-18T09:41:39.052Z,99171.98
2023-11-18T09:44:45.268Z,99170.13
2023-11-18T09:47:54.895Z,99169.19
2023-11-18T09:51:03.668Z,99170.43
2023-11-18T09:54:19.309Z,99169.80
2023-11-18T09:57:34.628Z,99172.08
2023-11-18T10:00:42.937Z,99170.22
2023-11-18T10:03:50.230Z,99170.09
2023-11-18T10:06:57.999Z,99171.86
2023-11-18T10:10:03.893Z,99174.02
2023-11-18T10:13:22.841Z,99169.23
2023-11-18T10:16:32.119Z,99173.86
2023-11-18T10:19:58.784Z,99190.00
2023-11-18T10:23:14.243Z,99198.50
2023-11-18T10:26:20.436Z,99199.16
2023-11-18T10:29:30.238Z,99199.45
2023-11-18T10:32:37.479Z,99202.37
2023-11-18T10:35:57.145Z,99209.74
2023-11-18T10:39:14.835Z,99215.06
2023-11-18T10:42:20.754Z,99218.92
2023-11-18T10:45:29.463Z,99222.85
2023-11-18T10:48:35.124Z,99227.82
2023-11-18T10:51:43.179Z,99231.69
2023-11-18T10:54:57.209Z,99235.91
2023-11-18T10:58:04.771Z,99240.67
2023-11-18T11:01:12.904Z,99246.93
2023-11-18T11:04:22.312Z,99255.60
2023-11-18T11:07:31.030Z,99264.28
2023-11-18T11:10:37.381Z,99267.60
2023-11-18T11:13:43.327Z,99276.64
2023-11-18T11:16:55.106Z,99275.45
2023-11-18T11:20:18.815Z,99267.12
2023-11-18T11:23:44.750Z,99264.95
2023-11-18T11:27:18.633Z,99269.63
2023-11-18T11:30:33.075Z,99278.57
2023-11-18T11:33:46.965Z,99285.14
2023-11-18T11:36:53.954Z,99294.94
2023-11-18T11:39:59.820Z,99301.70
2023-11-18T11:43:10.803Z,99308.80
2023-11-18T11:46:24.595Z,99310.85
2023-11-18T11:49:38.189Z,99316.91
2023-11-18T11:52:51.809Z,99321.64
2023-11-18T11:56:07.729Z,99328.51
2023-11-18T11:59:13.043Z,99328.05
2023-11-18T12:02:19.189Z,99327.50
2023-11-18T12:05:28.559Z,99329.21
2023-11-18T12:08:35.041Z,99337.69
2023-11-18T12:11:43.080Z,99342.02
2023-11-18T12:14:57.628Z,99349.98
2023-11-18T12:18:18.796Z,99351.02
2023-11-18T12:21:55.551Z,99354.80
2023-11-18T12:25:37.781Z,99362.52
2023-11-18T12:28:47.111Z,99362.51
2023-11-18T12:31:53.302Z,99366.16
2023-11-18T12:35:00.770Z,99366.44
2023-11-18T12:38:47.279Z,99370.51
2023-11-18T12:42:08.055Z,99373.79
2023-11-18T12:45:55.003Z,99375.01
2023-11-18T12:49:02.843Z,99377.18
2023-11-18T12:52:09.615Z,99383.86
2023-11-18T12:55:20.375Z,99384.83
2023-11-18T12:58:26.263Z,99387.34
2023-11-18T13:01:35.052Z,99393.41
2023-11-18T13:04:41.637Z,99396.46
2023-11-18T13:07:48.612Z,99401.08
2023-11-18T13:10:54.533Z,99409.91
2023-11-18T13:14:00.988Z,99411.31
2023-11-18T13:17:07.299Z,99416.19
2023-11-18T13:20:24.712Z,99425.30
2023-11-18T13:23:31.542Z,99433.92
2023-11-18T13:26:37.791Z,99444.08
2023-11-18T13:29:50.212Z,99446.28
2023-11-18T13:32:57.486Z,99452.40
2023-11-18T13:36:06.622Z,99456.20
2023-11-18T13:39:18.265Z,99461.90
2023-11-18T13:42:27.357Z,99462.23
2023-11-18T13:45:38.448Z,99469.17
2023-11-18T13:48:50.412Z,99471.88
2023-11-18T13:51:57.014Z,99478.27
2023-11-18T13:55:02.760Z,99481.39
2023-11-18T13:58:11.924Z,99487.73
2023-11-18T14:01:17.863Z,99488.59
2023-11-18T14:04:24.400Z,99491.52
2023-11-18T14:07:30.053Z,99492.56
2023-11-18T14:10:39.383Z,99499.29
2023-11-18T14:25:29.387Z,99511.77
2023-11-18T14:28:36.199Z,99518.44
2023-11-18T14:31:42.310Z,99522.31
2023-11-18T14:34:50.301Z,99528.17
2023-11-18T14:37:57.308Z,99529.48
2023-11-18T14:41:04.000Z,99532.30
2023-11-18T14:44:10.837Z,99534.80
2023-11-18T14:47:17.989Z,99542.02
2023-11-18T14:50:28.717Z,99544.30
2023-11-18T14:53:35.309Z,99543.69
2023-11-18T14:56:41.129Z,99543.17
2023-11-18T14:59:46.798Z,99543.93
2023-11-18T15:02:55.425Z,99542.15
2023-11-18T15:06:02.834Z,99542.40
2023-11-18T15:09:12.341Z,99544.92
2023-11-18T15:12:18.186Z,99553.86
2023-11-18T15:15:32.509Z,99553.42
2023-11-18T15:18:39.734Z,99552.09
2023-11-18T15:21:47.088Z,99557.70
2023-11-18T15:24:53.151Z,99565.05
2023-11-18T15:28:00.000Z,99571.30
2023-11-18T15:31:06.485Z,99573.52
2023-11-18T15:34:12.997Z,99577.77
2023-11-18T15:37:18.700Z,99583.60
2023-11-18T15:40:26.869Z,99581.20
2023-11-18T15:43:33.557Z,99583.11
2023-11-18T15:46:39.455Z,99582.61
2023-11-18T15:49:46.107Z,99586.86
2023-11-18T15:52:53.587Z,99586.35
2023-11-18T15:55:59.545Z,99592.08
2023-11-18T15:59:05.636Z,99592.86
2023-11-18T16:02:11.359Z,99597.47
2023-11-18T16:05:18.898Z,99600.85
2023-11-18T16:08:25.807Z,99595.25
2023-11-18T16:11:31.745Z,99606.84
2023-11-18T16:14:38.229Z,99616.61
2023-11-18T16:17:47.237Z,99615.60
2023-11-18T16:20:53.018Z,99616.83
2023-11-18T16:23:59.328Z,99614.45
2023-11-18T16:27:03.416Z,99612.80
2023-11-18T16:30:11.048Z,99616.91
2023-11-18T16:33:16.772Z,99620.17
2023-11-18T16:36:24.323Z,99620.19
2023-11-18T16:39:30.015Z,99630.61
2023-11-18T16:42:37.752Z,99624.71
2023-11-18T16:45:43.700Z,99631.98
2023-11-18T16:48:49.551Z,99638.70
2023-11-18T16:51:59.312Z,99636.73
2023-11-18T16:55:07.612Z,99642.58
2023-11-18T16:58:13.363Z,99638.05
2023-11-18T17:01:19.286Z,99641.88
2023-11-18T17:04:25.687Z,99637.53
2023-11-18T17:07:31.530Z,99632.55
2023-11-18T17:10:37.494Z,99634.77
2023-11-18T17:13:43.339Z,99638.26
2023-11-18T17:16:49.004Z,99632.55
2023-11-18T17:19:54.770Z,99632.63
2023-11-18T17:23:01.095Z,99639.02
2023-11-18T17:26:06.915Z,99645.73
2023-11-18T17:29:14.923Z,99643.77
2023-11-18T17:32:20.592Z,99643.73
2023-11-18T17:35:27.260Z,99644.61
2023-11-18T17:38:34.438Z,99645.48
2023-11-18T17:41:40.293Z,99650.26
2023-11-18T17:44:46.230Z,99650.86
2023-11-18T17:47:52.243Z,99648.13
2023-11-18T17:50:59.823Z,99639.40
2023-11-18T17:54:05.740Z,99639.81
2023-11-18T17:57:12.030Z,99650.15
2023-11-18T18:00:21.519Z,99647.85
2023-11-18T18:03:27.945Z,99657.55
2023-11-18T18:06:32.134Z,99659.98
2023-11-18T18:09:38.527Z,99654.15
2023-11-18T18:12:48.049Z,99658.33
2023-11-18T18:15:54.368Z,99649.08
2023-11-18T18:19:01.516Z,99647.22
2023-11-18T18:22:07.590Z,99646.06
2023-11-18T18:25:13.810Z,99643.73
2023-11-18T18:28:18.144Z,99643.85
2023-11-18T18:31:23.857Z,99651.36
2023-11-18T18:34:31.493Z,99656.14
2023-11-18T18:37:37.439Z,99648.50
2023-11-18T18:40:43.283Z,99652.71
2023-11-18T18:43:48.882Z,99651.22
2023-11-18T18:46:55.701Z,99645.06
2023-11-18T18:50:01.401Z,99644.60
2023-11-18T18:53:08.451Z,99640.11
2023-11-18T18:56:14.293Z,99637.38
2023-11-18T18:59:20.890Z,99637.63
2023-11-18T19:02:27.291Z,99633.70
2023-11-18T19:05:33.548Z,99637.27
2023-11-18T19:08:39.332Z,99640.08
2023-11-18T19:11:46.015Z,99638.52
2023-11-18T19:14:51.672Z,99635.52
2023-11-18T19:17:59.075Z,99637.40
2023-11-18T19:21:05.172Z,99637.08
2023-11-18T19:24:14.240Z,99639.46
2023-11-18T19:27:19.917Z,99638.95
2023-11-18T19:30:25.877Z,99639.27
2023-11-18T19:33:31.654Z,99634.34
2023-11-18T19:36:37.575Z,99627.16
2023-11-18T19:39:44.460Z,99620.54
2023-11-18T19:42:50.281Z,99614.44
2023-11-18T19:45:55.910Z,99613.50
2023-11-18T19:49:01.872Z,99617.95
2023-11-18T19:52:08.660Z,99621.48
2023-11-18T19:55:15.611Z,99618.66
2023-11-18T19:58:23.253Z,99607.62
2023-11-18T20:01:29.923Z,99599.80
2023-11-18T20:04:36.326Z,99592.52
2023-11-18T20:07:41.249Z,99588.54
2023-11-18T20:10:48.486Z,99593.15
2023-11-18T20:13:54.463Z,99594.66
2023-11-18T20:17:00.452Z,99595.17
2023-11-18T20:20:09.583Z,99596.98
2023-11-18T20:23:15.951Z,99596.46
2023-11-18T20:26:20.092Z,99592.77
2023-11-18T20:29:25.873Z,99587.77
2023-11-18T20:32:31.673Z,99581.17
2023-11-18T20:35:37.441Z,99583.55
2023-11-18T20:38:44.297Z,99583.79
2023-11-18T20:41:50.508Z,99581.56
2023-11-18T20:44:55.237Z,99578.41
2023-11-18T20:48:01.021Z,99573.95
2023-11-18T20:51:09.090Z,99582.33
2023-11-18T20:54:15.432Z,99581.73
2023-11-18T20:57:22.188Z,99586.33
2023-11-18T21:00:27.972Z,99591.83
2023-11-18T21:03:33.877Z,99593.52
2023-11-18T21:06:39.786Z,99587.52
2023-11-18T21:09:45.507Z,99580.98
2023-11-18T21:12:51.606Z,99576.17
2023-11-18T21:15:57.291Z,99568.77
2023-11-18T21:19:04.630Z,99554.73
2023-11-18T21:22:10.743Z,99547.83
2023-11-18T21:25:17.257Z,99540.44
2023-11-18T21:28:23.302Z,99540.26
2023-11-18T21:31:29.313Z,99534.70
2023-11-18T21:34:34.949Z,99532.97
2023-11-18T21:37:40.810Z,99538.78
2023-11-18T21:40:47.590Z,99548.36
2023-11-18T21:43:53.321Z,99543.67
2023-11-18T21:46:58.974Z,99534.48
2023-11-18T21:50:06.850Z,99529.46
2023-11-18T21:53:12.684Z,99539.73
2023-11-18T21:56:18.550Z,99558.00
2023-11-18T21:59:26.467Z,99562.68
2023-11-18T22:02:32.162Z,99559.39
2023-11-18T22:05:37.944Z,99557.75
2023-11-18T22:08:43.777Z,99555.86
2023-11-18T22:11:50.803Z,99540.92
2023-11-18T22:14:58.331Z,99530.88
2023-11-18T22:18:04.257Z,99519.68
2023-11-18T22:21:12.056Z,99508.84
2023-11-18T22:24:19.341Z,99501.92
2023-11-18T22:27:24.946Z,99500.35
2023-11-18T22:30:30.741Z,99507.62
2023-11-18T22:33:37.354Z,99518.02
2023-11-18T22:36:45.561Z,99523.92
2023-11-18T22:39:51.445Z,99528.36
2023-11-18T22:42:57.290Z,99532.49
2023-11-18T22:46:03.120Z,99531.58
2023-11-18T22:49:11.765Z,99537.42
2023-11-18T22:52:17.640Z,99533.64
2023-11-18T22:55:24.184Z,99529.59
2023-11-18T22:58:29.965Z,99526.39
2023-11-18T23:01:37.955Z,99518.35
2023-11-18T23:04:46.712Z,99510.69
2023-11-18T23:07:52.447Z,99502.64
2023-11-18T23:10:58.170Z,99496.45
2023-11-18T23:14:04.628Z,99484.41
2023-11-18T23:17:10.741Z,99478.48
2023-11-18T23:20:16.500Z,99470.66
2023-11-18T23:23:22.822Z,99465.85
2023-11-18T23:26:27.383Z,99472.48
2023-11-18T23:29:33.031Z,99476.45
2023-11-18T23:32:40.950Z,99471.73
2023-11-18T23:35:46.902Z,99466.50
2023-11-18T23:39:02.242Z,99466.89
2023-11-18T23:42:11.163Z,99467.22
2023-11-18T23:45:17.296Z,99474.74
2023-11-18T23:48:23.022Z,99472.30
2023-11-18T23:51:29.510Z,99466.05
2023-11-18T23:54:35.169Z,99476.08
2023-11-18T23:57:41.678Z,99477.31
